Terminal Aerodrome Forecast
Issued by NWS

Current Version | Previous Version | Text Only | Print | Product List | Glossary On
Versions: 1 2 3 4 5 6 7 8 9 10 11 12 13 14 15 16
000
FTUS46 KSEW 210500
TAFHQM
TAF
KHQM 210524Z 2106/2206 24005KT P6SM SCT010
      TEMPO 2107/2109 BKN010
     FM210900 28005KT P6SM OVC007
     FM212000 26016G24KT P6SM VCSH OVC025=

USA.gov is the U.S. government's official web portal to all federal, state and local government web resources and services.